Sun Valley, Arizona
Current Conditions -  °F | °C
As of 8:56 PM on Tuesday 25 Nov 2014 (Local Time) from KINW Reporting Station
Clear Clear  
Wind Chill: 29°   Ceiling: Unl
Heat Index: 29°   Visibility: 10mi
Dew Point: -4°   Wind: 3mph
Humidity: 24%   Direction: 210°SSW
Pressure: 30.38"   Gusts: NA
Location:  34.9°N, 110.16°W
Report Text: KINW 260356Z AUTO 21003KT 10SM CLR M02/M20 A3038 RMK AO2 SLP317 T10171200
Loading
Personal Weather Stations






























Interactive Weather Map New forecast layout! Learn more

10-Day Weather Forecast

Advertisements
Track Severe Weather on mobile